Flight Track Log - Related Links

Times and Time Zones

All times are in EDT time to prevent confusion due to time zone crossing. See the EJA922 flight status page for this flight to view local times or setup timezone preferences in your user account.

Time Position Orientation Groundspeed Altitude Reporting Facility
EDT Latitude Longitude Course Direction KTS MPH feet Rate Location/Type
Tue 01:36:56 PM 47.7769 -116.9347 248° West 226 260 10,400  Level Seattle Center
Tue 01:37:57 PM 47.7344 -117.0553 242° Southwest 317 365 13,500 3,049 Climbing Seattle Center
Tue 01:38:58 PM 47.6436 -117.0964 197° South 351 404 16,600 2,488 Climbing Seattle Center
Tue 01:40:00 PM 47.5242 -117.1403 194° South 376 433 18,600 2,000 Climbing Seattle Center
Tue 01:41:00 PM 47.4053 -117.6333 180° South  Level FlightAware Approximate
Tue 01:41:01 PM 47.4164 -117.1781 193° South 403 464 20,700  Level Seattle Center
Tue 01:42:02 PM 47.3086 -117.2169 194° South 402 463 22,600 1,805 Climbing Seattle Center
Tue 01:43:04 PM 47.1997 -117.2556 194° South 402 463 24,400 1,707 Climbing Seattle Center
Tue 01:44:05 PM 47.0875 -117.2953 194° South 411 473 26,100 1,623 Climbing Seattle Center
Tue 01:45:06 PM 46.9725 -117.3367 194° South 423 487 27,700 1,770 Climbing Seattle Center
Tue 01:46:07 PM 46.8319 -117.3869 194° South 433 498 29,700 1,756 Climbing Seattle Center
Tue 01:47:09 PM 46.7131 -117.4289 194° South 439 505 31,300 1,561 Climbing Seattle Center
Tue 01:48:10 PM 46.5917 -117.4714 194° South 448 516 32,900 1,426 Climbing Seattle Center
Tue 01:49:11 PM 46.4678 -117.5144 193° South 458 527 34,200 1,317 Climbing Seattle Center
Tue 01:50:13 PM 46.3411 -117.5586 194° South 467 537 35,600 1,561 Climbing Seattle Center
Tue 01:51:14 PM 46.2147 -117.6011 193° South 468 539 37,400 1,672 Climbing Seattle Center
Tue 01:52:15 PM 46.0936 -117.6453 194° South 453 521 39,000 1,525 Climbing Seattle Center
Tue 01:53:16 PM 45.9733 -117.6856 193° South 447 514 40,500 976 Climbing Seattle Center
Tue 01:54:18 PM 45.8536 -117.7244 193° South 441 507 41,000 244 Climbing Seattle Center
Tue 01:55:19 PM 45.7033 -117.7750 193° South 461 531 41,000  Level Seattle Center
Tue 01:56:21 PM 45.5842 -117.8156 193° South 470 541 41,000  Level Seattle Center
Tue 01:57:22 PM 45.4533 -117.8592 193° South 478 550 41,000  Level Seattle Center
Tue 01:58:23 PM 45.3236 -117.9031 193° South 479 551 41,000  Level Seattle Center
Tue 01:59:25 PM 45.1917 -117.9458 193° South 485 558 41,000  Level Seattle Center
Tue 02:00:26 PM 45.0439 -117.9956 193° South 479 551 41,000  Level Seattle Center
Tue 02:01:27 PM 44.9189 -118.0367 193° South 482 555 41,000  Level Seattle Center
Tue 02:02:29 PM 44.7733 -118.0842 193° South 482 555 41,000  Level Seattle Center
Tue 02:03:30 PM 44.6486 -118.1258 193° South 481 554 41,000  Level Seattle Center
Tue 02:04:31 PM 44.5031 -118.1722 193° South 481 554 41,000  Level Seattle Center
Tue 02:05:33 PM 44.3833 -118.2111 193° South 480 552 41,000  Level Seattle Center
Tue 02:06:34 PM 44.2539 -118.2528 193° South 477 549 41,000  Level Seattle Center
Tue 02:07:35 PM 44.1228 -118.2944 193° South 482 555 41,000  Level Seattle Center
Tue 02:08:43 PM 43.9631 -118.3461 193° South 481 554 41,000  Level Salt Lake Center
Tue 02:09:45 PM 43.8319 -118.3886 193° South 481 554 41,000  Level Salt Lake Center
Tue 02:10:39 PM 43.7108 -118.4247 192° South 486 559 41,000  Level Seattle Center
Tue 02:11:41 PM 43.5861 -118.4642 193° South 483 556 41,000  Level Seattle Center
Tue 02:12:42 PM 43.4397 -118.5086 192° South 483 556 41,000  Level Seattle Center
Tue 02:13:53 PM 43.3075 -118.5517 193° South 485 558 41,000  Level Salt Lake Center
Tue 02:14:55 PM 43.1478 -118.6017 193° South 482 555 41,000  Level Salt Lake Center
Tue 02:15:57 PM 43.0197 -118.6408 193° South 482 555 41,000  Level Salt Lake Center
Tue 02:16:59 PM 42.8878 -118.6808 193° South 484 557 41,000  Level Salt Lake Center
Tue 02:18:01 PM 42.7569 -118.7225 193° South 484 557 41,000  Level Salt Lake Center
Tue 02:19:03 PM 42.6264 -118.7619 193° South 481 554 41,000  Level Salt Lake Center
Tue 02:20:05 PM 42.4967 -118.8011 193° South 478 550 41,000  Level Salt Lake Center
Tue 02:21:07 PM 42.3394 -118.8467 192° South 482 555 41,000  Level Salt Lake Center
Tue 02:22:09 PM 42.2142 -118.8867 193° South 481 554 41,000  Level Salt Lake Center
Tue 02:23:11 PM 42.0686 -118.9281 192° South 480 552 41,000  Level Salt Lake Center
Tue 02:24:13 PM 41.9436 -118.9656 193° South 480 552 41,000  Level Salt Lake Center
Tue 02:25:15 PM 41.7997 -119.0067 192° South 476 548 41,000  Level Salt Lake Center
Tue 02:26:17 PM 41.6744 -119.0461 193° South 480 552 41,000  Level Salt Lake Center
Tue 02:27:19 PM 41.5267 -119.0900 193° South 485 558 41,000  Level Salt Lake Center
Tue 02:28:21 PM 41.4019 -119.1258 192° South 482 555 41,000  Level Salt Lake Center
Tue 02:29:24 PM 41.2581 -119.1661 192° South 482 555 41,000  Level Oakland Center
Tue 02:30:26 PM 41.1339 -119.2022 192° South 480 552 41,000  Level Oakland Center
Tue 02:31:27 PM 41.0056 -119.2406 193° South 482 555 41,000  Level Salt Lake Center
Tue 02:32:29 PM 40.8617 -119.2811 192° South 483 556 41,000  Level Oakland Center
Tue 02:33:30 PM 40.7308 -119.3186 192° South 476 548 41,000  Level Oakland Center
Tue 02:34:31 PM 40.6006 -119.3569 193° South 478 550 41,000  Level Oakland Center
Tue 02:35:33 PM 40.4714 -119.3944 192° South 475 547 41,000  Level Oakland Center
Tue 02:36:34 PM 40.3422 -119.4311 192° South 477 549 41,000  Level Oakland Center
Tue 02:37:36 PM 40.2125 -119.4667 192° South 478 550 41,000  Level Oakland Center
Tue 02:38:37 PM 40.0578 -119.5094 192° South 476 548 41,000  Level Oakland Center
Tue 02:39:39 PM 39.9286 -119.5467 192° South 476 548 41,000  Level Oakland Center
Tue 02:40:40 PM 39.7989 -119.5814 192° South 477 549 41,000  Level Oakland Center
Tue 02:41:41 PM 39.6675 -119.5769 179° South 474 545 41,000  Level Oakland Center
Tue 02:42:43 PM 39.5314 -119.5592 174° South 491 565 41,000  Level Oakland Center
Tue 02:43:44 PM 39.3967 -119.5433 175° South 490 564 41,000  Level Oakland Center
Tue 02:45:16 PM 39.1817 -119.5217 176° South 488 562 41,000  Level Los Angeles Center
Tue 02:45:47 PM 39.1258 -119.5094 170° South 492 566 41,000  Level Oakland Center
Tue 02:46:49 PM 38.9636 -119.4897 175° South 492 566 41,000  Level Oakland Center
Tue 02:47:50 PM 38.8281 -119.4731 175° South 492 566 41,000  Level Oakland Center
Tue 02:48:52 PM 38.6922 -119.4578 175° South 493 567 41,000  Level Oakland Center
Tue 02:49:53 PM 38.5594 -119.4442 175° South 484 557 41,000  Level Oakland Center
Tue 02:50:54 PM 38.4233 -119.4272 174° South 488 562 41,000  Level Oakland Center
Tue 02:51:56 PM 38.2869 -119.4114 175° South 492 566 41,000  Level Oakland Center
Tue 02:52:57 PM 38.1428 -119.3950 175° South 488 562 41,000  Level Oakland Center
Tue 02:53:59 PM 38.0092 -119.3792 175° South 482 555 41,000  Level Oakland Center
Tue 02:55:00 PM 37.8742 -119.3636 175° South 483 556 41,000  Level Oakland Center
Tue 02:56:01 PM 37.7372 -119.3478 175° South 490 564 41,000  Level Oakland Center
Tue 02:57:03 PM 37.5842 -119.3294 175° South 488 562 41,000  Level Oakland Center
Tue 02:58:04 PM 37.4483 -119.3131 175° South 492 566 41,000  Level Oakland Center
Tue 02:59:05 PM 37.3119 -119.2972 175° South 491 565 41,000  Level Oakland Center
Tue 03:00:07 PM 37.1761 -119.2817 175° South 491 565 41,000  Level Oakland Center
Tue 03:01:08 PM 37.0425 -119.2667 175° South 486 559 41,000  Level Oakland Center
Tue 03:02:10 PM 36.9072 -119.2528 175° South 486 559 41,000  Level Oakland Center
Tue 03:03:11 PM 36.7731 -119.2389 175° South 486 559 41,000  Level Oakland Center
Tue 03:04:12 PM 36.6389 -119.2233 175° South 484 557 41,000  Level Oakland Center
Tue 03:05:14 PM 36.4786 -119.2050 175° South 481 554 41,000  Level Oakland Center
Tue 03:06:15 PM 36.3458 -119.1911 175° South 479 551 41,000 -49 Level Oakland Center
Tue 03:07:17 PM 36.2103 -119.1747 174° South 485 558 40,900  Descending Oakland Center
Tue 03:08:18 PM 36.0767 -119.1342 166° South 490 564 41,000 49 Climbing Oakland Center
Tue 03:09:19 PM 35.9428 -119.0894 165° South 495 570 41,000 -195 Level Oakland Center
Tue 03:10:21 PM 35.8103 -119.0442 165° South 492 566 40,600 -780 Descending Oakland Center
Tue 03:11:22 PM 35.6781 -119.0003 165° South 492 566 39,400 -1,171 Descending Oakland Center
Tue 03:12:24 PM 35.5483 -118.9572 165° South 484 557 38,200 -1,171 Descending Oakland Center
Tue 03:13:25 PM 35.4147 -118.9139 165° South 491 565 37,000 -1,180 Descending Oakland Center
Tue 03:14:26 PM 35.2811 -118.8700 165° South 495 570 35,800 -976 Descending Oakland Center
Tue 03:15:28 PM 35.1203 -118.8178 165° South 497 572 35,000 -390 Descending Oakland Center
Tue 03:16:29 PM 34.9850 -118.7728 165° South 500 575 35,000 -341 Level Oakland Center
Tue 03:17:31 PM 34.8483 -118.7292 165° South 502 578 34,300 -1,033 Descending Oakland Center
Tue 03:19:00 PM 34.6403 -118.6628 165° South 511 588 32,400 -1,272 Descending Los Angeles Center
Tue 03:20:02 PM 34.5028 -118.6183 165° South 511 588 31,100 -1,742 Descending Los Angeles Center
Tue 03:21:04 PM 34.3650 -118.5736 165° South 511 588 28,800 -2,226 Descending Los Angeles Center
Tue 03:22:06 PM 34.2331 -118.5319 165° South 494 568 26,500 -2,226 Descending Los Angeles Center
Tue 03:23:08 PM 34.1031 -118.4892 165° South 486 559 24,200 -1,500 Descending Los Angeles Center
Tue 03:24:10 PM 33.9756 -118.4481 165° South 476 548 23,400 -1,355 Descending Los Angeles Center
Tue 03:25:12 PM 33.8239 -118.4703 187° South 471 542 21,400 -1,645 Descending Los Angeles Center
Tue 03:26:14 PM 33.7033 -118.5128 196° South 459 528 20,000 -968 Descending Los Angeles Center
Tue 03:27:16 PM 33.5831 -118.5478 194° South 450 518 19,400 -1,235 Descending Los Angeles Center
Tue 03:28:30 PM 33.4711 -118.5047 162° South 434 499 17,200 -2,250 Descending Los Angeles Center
Tue 03:29:32 PM 33.3658 -118.3575 131° Southeast 435 501 14,300 -2,323 Descending Los Angeles Center
Tue 03:30:34 PM 33.3494 -118.2322 99° East 393 452 12,400 -1,742 Descending Los Angeles Center
Tue 03:31:36 PM 33.3356 -118.1222 99° East 349 402 10,700 -1,694 Descending Los Angeles Center
Tue 03:32:38 PM 33.3225 -118.0222 99° East 316 364 8,900 -2,304 Descending Los Angeles Center
Tue 03:33:41 PM 33.3100 -117.9247 99° East 303 349 5,900 -1,721 Descending Los Angeles Center
Tue 03:34:54 PM 33.2956 -117.8133 99° East 288 331 5,000 -400 Descending Los Angeles Center
Tue 03:35:56 PM 33.2797 -117.7025 100° East 284 327 5,000  Level Los Angeles Center
Tue 03:37:01 PM 33.2667 -117.6000 99° East 286 329 5,000  Level Southern California TRACON
Tue 03:38:02 PM 33.2500 -117.5000 101° East 287 330 5,000 -496 Level Southern California TRACON
Tue 03:39:02 PM 33.2333 -117.4167 103° East 276 318 4,000 -500 Descending Southern California TRACON
Tue 03:40:02 PM 33.2333 -117.3167 90° East 271 312 4,000 -200 Level Southern California TRACON
Tue 03:41:02 PM 33.2333 -117.2333 90° East 263 303 3,600 -149 Descending Southern California TRACON
Tue 03:42:03 PM 33.2000 -117.1667 121° Southeast 236 272 3,700 -347 Climbing Southern California TRACON
Tue 03:43:03 PM 33.1500 -117.1667 180° South 246 283 2,900 -1,100 Descending Southern California TRACON
Tue 03:44:03 PM 33.1333 -117.2167 248° West 157 181 1,500 -1,200 Descending Southern California TRACON
Tue 03:45:03 PM 33.1333 -117.2667 270° West 123 142 500 -1,000 Descending Southern California TRACON

Login

Don't have an account? Register now (free) for customized features, flight alerts, and more!